Time;durP1;ratioP1;P1;durP2;ratioP2;P2;SDS_P1;SDS_P2;PMS_P1;PMS_P2;Temp;Humidity;BMP_temperature;BMP_pressure;BME280_temperature;BME280_humidity;BME280_pressure;Samples;Min_cycle;Max_cycle;Signal;HPM_P1;HPM_P2
2023/02/09 00:00:29;;;;;;;46.45;44.10;;;-1.30;99.90;;;;;;4207554;28;20058;-84
2023/02/09 00:02:49;;;;;;;42.58;40.47;;;-1.30;99.90;;;;;;4203591;28;20117;-84
2023/02/09 00:05:10;;;;;;;44.90;42.92;;;-1.30;99.90;;;;;;4211412;28;20093;-84
2023/02/09 00:07:29;;;;;;;39.08;37.47;;;-1.30;99.90;;;;;;4208246;28;20419;-84
2023/02/09 00:09:51;;;;;;;42.90;40.85;;;-1.30;99.90;;;;;;4213280;28;20052;-84
2023/02/09 00:14:49;;;;;;;40.28;38.47;;;-1.30;99.90;;;;;;4210104;28;20059;-84
2023/02/09 00:17:10;;;;;;;42.33;40.35;;;-1.30;99.90;;;;;;4206561;28;20052;-84
2023/02/09 00:19:30;;;;;;;44.97;43.08;;;-1.30;99.90;;;;;;4194946;28;20043;-84
2023/02/09 00:21:52;;;;;;;39.95;38.15;;;-1.30;99.90;;;;;;4205601;28;20078;-84
2023/02/09 00:24:13;;;;;;;47.33;44.95;;;-1.30;99.90;;;;;;4205388;28;20090;-84
2023/02/09 00:26:34;;;;;;;44.70;42.65;;;-1.30;99.90;;;;;;4213275;28;20055;-84
2023/02/09 00:28:54;;;;;;;46.20;44.05;;;-1.40;99.90;;;;;;4197727;28;20076;-84
2023/02/09 00:31:13;;;;;;;44.72;42.72;;;-1.40;99.90;;;;;;4196953;28;20055;-84
2023/02/09 00:33:34;;;;;;;46.60;44.65;;;-1.40;99.90;;;;;;4195686;28;20047;-84
2023/02/09 00:35:54;;;;;;;43.90;42.13;;;-1.40;99.90;;;;;;4198481;28;20063;-84
2023/02/09 00:38:14;;;;;;;42.13;40.25;;;-1.40;99.90;;;;;;4211882;28;20051;-84
2023/02/09 00:40:36;;;;;;;42.35;40.55;;;-1.30;99.90;;;;;;4209767;28;20050;-84
2023/02/09 00:42:55;;;;;;;45.03;43.08;;;-1.40;99.90;;;;;;4211560;28;20371;-84
2023/02/09 00:45:16;;;;;;;44.60;42.65;;;-1.40;99.90;;;;;;4200364;28;20082;-84
2023/02/09 00:47:36;;;;;;;44.22;42.28;;;-1.40;99.90;;;;;;4204995;28;20047;-84
2023/02/09 00:49:56;;;;;;;43.97;42.00;;;-1.30;99.90;;;;;;4213590;28;20735;-84
2023/02/09 00:52:16;;;;;;;44.17;42.38;;;-1.30;99.90;;;;;;4202250;28;20052;-84
2023/02/09 00:54:36;;;;;;;44.10;42.35;;;-1.30;99.90;;;;;;4213113;28;20055;-84
2023/02/09 00:57:03;;;;;;;39.22;37.42;;;-1.30;99.90;;;;;;4208415;28;20251;-84
2023/02/09 00:59:23;;;;;;;41.58;39.47;;;-1.30;99.90;;;;;;4210784;28;20051;-84
2023/02/09 01:01:43;;;;;;;41.90;40.20;;;-1.20;99.90;;;;;;4199902;28;20083;-84
2023/02/09 01:04:03;;;;;;;42.38;40.67;;;-1.10;99.90;;;;;;4210823;28;20105;-84
2023/02/09 01:06:24;;;;;;;43.35;41.35;;;-1.00;99.90;;;;;;4196246;28;20055;-84
2023/02/09 01:08:44;;;;;;;44.95;43.08;;;-1.00;99.90;;;;;;4201371;28;20047;-84
2023/02/09 01:11:10;;;;;;;41.88;40.05;;;-1.00;99.90;;;;;;4194480;28;20051;-84
2023/02/09 01:13:30;;;;;;;42.03;40.42;;;-1.00;99.90;;;;;;4215404;28;20258;-84
2023/02/09 01:15:50;;;;;;;41.90;39.92;;;-1.00;99.90;;;;;;4214852;28;20074;-84
2023/02/09 01:18:10;;;;;;;39.78;37.97;;;-0.90;99.90;;;;;;4217729;28;20051;-84
2023/02/09 01:20:30;;;;;;;40.78;39.08;;;-0.90;99.90;;;;;;4204451;28;20417;-84
2023/02/09 01:22:50;;;;;;;40.60;39.00;;;-0.90;99.90;;;;;;4213952;28;20112;-84
2023/02/09 01:25:10;;;;;;;40.45;38.60;;;-0.80;99.90;;;;;;4198506;28;20099;-84
2023/02/09 01:27:30;;;;;;;34.85;33.55;;;-0.80;99.90;;;;;;4212454;28;20518;-84
2023/02/09 01:29:50;;;;;;;39.47;37.83;;;-0.80;99.90;;;;;;4212917;28;20071;-84
2023/02/09 01:32:10;;;;;;;37.50;36.00;;;-0.90;99.90;;;;;;4214921;28;20056;-84
2023/02/09 01:34:31;;;;;;;38.35;36.65;;;-0.90;99.90;;;;;;4197788;28;20147;-84
2023/02/09 01:36:51;;;;;;;38.13;36.50;;;-0.90;99.90;;;;;;4207067;28;20047;-84
2023/02/09 01:39:12;;;;;;;37.22;35.72;;;-0.80;99.90;;;;;;4214526;28;20134;-84
2023/02/09 01:41:33;;;;;;;39.60;37.80;;;-0.60;99.90;;;;;;4212659;28;20056;-84
2023/02/09 01:43:53;;;;;;;36.38;34.85;;;-0.70;99.90;;;;;;4213984;28;20050;-84
2023/02/09 01:46:13;;;;;;;36.75;35.28;;;-0.70;99.90;;;;;;4212051;28;20047;-84
2023/02/09 01:48:33;;;;;;;39.15;37.17;;;-0.70;99.90;;;;;;4211585;28;20075;-84
2023/02/09 01:50:57;;;;;;;41.70;39.72;;;-0.70;99.90;;;;;;4214855;28;20090;-84
2023/02/09 01:53:18;;;;;;;39.50;37.78;;;-0.70;99.90;;;;;;4201161;28;20051;-84
2023/02/09 01:55:50;;;;;;;39.58;37.72;;;-0.80;99.90;;;;;;4214658;28;20070;-84
2023/02/09 01:58:15;;;;;;;37.90;36.60;;;-0.80;99.90;;;;;;4207752;28;20082;-84
2023/02/09 02:00:34;;;;;;;40.80;39.42;;;-0.70;99.90;;;;;;4213360;28;20090;-84
2023/02/09 02:03:00;;;;;;;43.65;41.70;;;-0.70;99.90;;;;;;4210680;28;20067;-84
2023/02/09 02:05:21;;;;;;;40.03;38.47;;;-0.70;99.90;;;;;;4211726;28;20247;-84
2023/02/09 02:08:02;;;;;;;41.13;39.33;;;-0.70;99.90;;;;;;4215409;28;20085;-84
2023/02/09 02:10:22;;;;;;;39.58;37.90;;;-0.70;99.90;;;;;;4212781;28;20039;-84
2023/02/09 02:12:43;;;;;;;38.72;37.25;;;-0.70;99.90;;;;;;4206328;28;20042;-84
2023/02/09 02:15:03;;;;;;;36.03;34.55;;;-0.70;99.90;;;;;;4211946;28;20378;-84
2023/02/09 02:17:44;;;;;;;35.17;33.75;;;-0.80;99.90;;;;;;4198562;28;20433;-84
2023/02/09 02:20:42;;;;;;;38.80;37.25;;;-0.80;99.90;;;;;;4214203;28;20066;-84
2023/02/09 02:23:39;;;;;;;40.72;38.75;;;-0.80;99.90;;;;;;4209460;28;20100;-84
2023/02/09 02:26:17;;;;;;;41.90;40.20;;;-0.70;99.90;;;;;;4198730;28;20047;-84
2023/02/09 02:29:03;;;;;;;44.90;42.60;;;-0.70;99.90;;;;;;4199323;28;20135;-84
2023/02/09 02:32:08;;;;;;;46.50;44.47;;;-0.70;99.90;;;;;;4212981;28;20385;-84
2023/02/09 02:34:53;;;;;;;41.25;39.45;;;-0.70;99.90;;;;;;4199678;28;20086;-84
2023/02/09 02:37:42;;;;;;;41.72;40.08;;;-0.70;99.90;;;;;;4211207;28;20389;-84
2023/02/09 02:40:17;;;;;;;41.33;39.70;;;-0.60;99.90;;;;;;4193854;28;20094;-84
2023/02/09 02:42:50;;;;;;;42.88;41.28;;;-0.70;99.90;;;;;;4213719;28;20050;-84
2023/02/09 02:45:22;;;;;;;41.70;39.97;;;-0.60;99.90;;;;;;4202342;28;20043;-84
2023/02/09 02:47:51;;;;;;;42.00;40.10;;;-0.60;99.90;;;;;;4199600;28;20039;-84
2023/02/09 02:50:17;;;;;;;43.55;41.67;;;-0.70;99.90;;;;;;4202126;28;20349;-84
2023/02/09 02:52:39;;;;;;;42.28;40.63;;;-0.70;99.90;;;;;;4214050;28;20043;-84
2023/02/09 02:55:10;;;;;;;37.47;35.92;;;-0.70;99.90;;;;;;4215219;28;20075;-84
2023/02/09 02:57:34;;;;;;;39.38;37.53;;;-0.70;99.90;;;;;;4209946;28;20060;-84
2023/02/09 03:00:11;;;;;;;45.63;43.70;;;-0.70;99.90;;;;;;4210712;28;20078;-84
2023/02/09 03:02:46;;;;;;;45.35;43.50;;;-0.70;99.90;;;;;;4210983;28;20073;-84
2023/02/09 03:05:07;;;;;;;43.22;41.42;;;-0.70;99.90;;;;;;4213990;28;20155;-84
2023/02/09 03:07:27;;;;;;;43.85;41.92;;;-0.70;99.90;;;;;;4199173;28;20171;-84
2023/02/09 03:09:55;;;;;;;42.38;40.38;;;-0.70;99.90;;;;;;4212851;28;20393;-84
2023/02/09 03:12:21;;;;;;;42.17;40.30;;;-0.80;99.90;;;;;;4212183;28;20040;-84
2023/02/09 03:15:06;;;;;;;43.35;41.50;;;-0.70;99.90;;;;;;4210553;28;20089;-84
2023/02/09 03:17:47;;;;;;;42.35;40.55;;;-0.70;99.90;;;;;;4206114;28;20494;-84
2023/02/09 03:20:17;;;;;;;40.88;39.33;;;-0.70;99.90;;;;;;4207662;28;20051;-84
2023/02/09 03:22:41;;;;;;;42.55;40.75;;;-0.80;99.90;;;;;;4214220;28;20082;-84
2023/02/09 03:25:06;;;;;;;42.95;41.05;;;-0.70;99.90;;;;;;4202618;28;20231;-84
2023/02/09 03:27:31;;;;;;;46.17;44.08;;;-0.80;99.90;;;;;;4198690;28;20087;-84
2023/02/09 03:29:56;;;;;;;42.88;40.95;;;-0.80;99.90;;;;;;4210383;28;20232;-84
2023/02/09 03:32:17;;;;;;;41.13;39.28;;;-0.80;99.90;;;;;;4208073;28;20075;-84
2023/02/09 03:34:37;;;;;;;47.40;45.17;;;-0.80;99.90;;;;;;4196474;28;20060;-84
2023/02/09 03:36:58;;;;;;;47.30;45.30;;;-0.80;99.90;;;;;;4220054;28;20071;-84
2023/02/09 03:39:18;;;;;;;43.28;41.45;;;-0.80;99.90;;;;;;4209318;28;20263;-84
2023/02/09 03:41:38;;;;;;;44.15;42.20;;;-0.90;99.90;;;;;;4195025;28;20044;-84
2023/02/09 03:46:37;;;;;;;43.53;41.63;;;-0.90;99.90;;;;;;4213460;28;20051;-84
2023/02/09 03:48:57;;;;;;;41.35;39.63;;;-0.90;99.90;;;;;;4197032;28;20079;-84
2023/02/09 03:51:17;;;;;;;44.60;42.70;;;-0.90;99.90;;;;;;4211677;28;20046;-84
2023/02/09 03:53:36;;;;;;;42.00;40.10;;;-0.80;99.90;;;;;;4208091;28;20227;-84
2023/02/09 03:55:57;;;;;;;45.63;43.45;;;-0.80;99.90;;;;;;4210379;28;20115;-84
2023/02/09 03:58:17;;;;;;;45.20;43.17;;;-0.80;99.90;;;;;;4213949;28;20051;-84
2023/02/09 04:00:37;;;;;;;41.35;39.35;;;-0.80;99.90;;;;;;4212974;28;20326;-84
2023/02/09 04:02:58;;;;;;;41.22;39.53;;;-0.90;99.90;;;;;;4215722;28;20047;-84
2023/02/09 04:05:18;;;;;;;41.20;39.38;;;-0.90;99.90;;;;;;4219120;28;20145;-84
2023/02/09 04:07:38;;;;;;;47.58;45.10;;;-0.90;99.90;;;;;;4211446;28;20094;-84
2023/02/09 04:09:58;;;;;;;46.25;44.00;;;-0.90;99.90;;;;;;4213069;28;20293;-84
2023/02/09 04:12:18;;;;;;;45.85;43.72;;;-0.90;99.90;;;;;;4210786;28;20116;-84
2023/02/09 04:14:39;;;;;;;44.03;41.83;;;-1.00;99.90;;;;;;4198723;28;20052;-84
2023/02/09 04:16:59;;;;;;;42.75;40.60;;;-0.90;99.90;;;;;;4198602;28;20052;-84
2023/02/09 04:19:19;;;;;;;43.95;41.80;;;-0.90;99.90;;;;;;4200246;28;20078;-84
2023/02/09 04:21:39;;;;;;;43.58;41.33;;;-0.90;99.90;;;;;;4203323;28;20098;-84
2023/02/09 04:23:58;;;;;;;42.95;40.88;;;-0.90;99.90;;;;;;4211276;28;20120;-84
2023/02/09 04:26:18;;;;;;;45.47;43.38;;;-0.90;99.90;;;;;;4203309;28;20075;-84
2023/02/09 04:28:38;;;;;;;48.08;45.35;;;-0.90;99.90;;;;;;4196982;28;20043;-84
2023/02/09 04:30:58;;;;;;;46.40;44.35;;;-0.90;99.90;;;;;;4206023;28;20088;-84
2023/02/09 04:33:18;;;;;;;44.13;41.65;;;-0.80;99.90;;;;;;4201263;28;20047;-84
2023/02/09 04:35:38;;;;;;;46.50;43.95;;;-0.90;99.90;;;;;;4194798;28;20058;-84
2023/02/09 04:37:57;;;;;;;47.25;43.95;;;-0.90;99.90;;;;;;4198220;28;20379;-84
2023/02/09 04:40:17;;;;;;;41.08;38.83;;;-0.90;99.90;;;;;;4203708;28;20155;-84
2023/02/09 04:42:37;;;;;;;48.13;44.70;;;-1.00;99.90;;;;;;4210981;28;20112;-84
2023/02/09 04:44:56;;;;;;;48.25;45.00;;;-1.00;99.90;;;;;;4214994;28;20265;-84
2023/02/09 04:47:16;;;;;;;48.90;45.80;;;-1.00;99.90;;;;;;4199490;28;20413;-84
2023/02/09 04:49:39;;;;;;;42.30;40.03;;;-1.00;99.90;;;;;;4198401;28;20044;-84
2023/02/09 04:51:59;;;;;;;44.95;42.55;;;-1.10;99.90;;;;;;4215951;28;20046;-84
2023/02/09 04:54:19;;;;;;;43.60;41.35;;;-1.00;99.90;;;;;;4201658;28;20071;-84
2023/02/09 04:56:39;;;;;;;44.80;42.70;;;-1.00;99.90;;;;;;4215644;28;20334;-84
2023/02/09 05:01:37;;;;;;;47.35;45.25;;;-1.00;99.90;;;;;;4212318;28;20077;-84
2023/02/09 05:03:57;;;;;;;41.45;39.53;;;-0.90;99.90;;;;;;4209552;28;20171;-84
2023/02/09 05:06:17;;;;;;;43.47;41.35;;;-0.90;99.90;;;;;;4214348;28;20081;-84
2023/02/09 05:08:37;;;;;;;41.95;39.92;;;-0.90;99.90;;;;;;4211009;28;20035;-84
2023/02/09 05:10:57;;;;;;;40.42;38.65;;;-0.90;99.90;;;;;;4211064;28;20071;-84
2023/02/09 05:13:19;;;;;;;35.20;33.63;;;-0.90;99.90;;;;;;4215158;28;20240;-84
2023/02/09 05:15:39;;;;;;;42.13;40.30;;;-0.90;99.90;;;;;;4204616;28;20054;-84
2023/02/09 05:17:59;;;;;;;46.17;44.08;;;-0.90;99.90;;;;;;4199625;28;20976;-84
2023/02/09 05:20:19;;;;;;;40.83;38.30;;;-0.90;99.90;;;;;;4212546;28;20051;-84
2023/02/09 05:22:39;;;;;;;45.55;42.83;;;-1.00;99.90;;;;;;4213380;28;20079;-84
2023/02/09 05:24:59;;;;;;;46.67;43.58;;;-1.00;99.90;;;;;;4214940;28;20078;-84
2023/02/09 05:27:19;;;;;;;46.20;43.78;;;-1.00;99.90;;;;;;4202946;28;20059;-84
2023/02/09 05:29:39;;;;;;;43.65;41.35;;;-1.00;99.90;;;;;;4217500;28;20052;-84
2023/02/09 05:31:59;;;;;;;44.85;42.67;;;-1.00;99.90;;;;;;4201679;28;20143;-84
2023/02/09 05:34:19;;;;;;;41.20;39.10;;;-0.90;99.90;;;;;;4200852;28;20067;-84
2023/02/09 05:36:39;;;;;;;41.95;40.15;;;-0.80;99.90;;;;;;4215699;28;20078;-83
2023/02/09 05:38:59;;;;;;;45.70;43.35;;;-0.80;99.90;;;;;;4214448;28;20043;-83
2023/02/09 05:43:57;;;;;;;44.00;42.00;;;-0.80;99.90;;;;;;4207626;28;20093;-83
2023/02/09 05:46:17;;;;;;;43.75;41.85;;;-0.80;99.90;;;;;;4215018;28;20086;-83
2023/02/09 05:48:37;;;;;;;43.33;41.42;;;-0.80;99.90;;;;;;4214352;28;20112;-83
2023/02/09 05:50:56;;;;;;;44.97;42.90;;;-0.80;99.90;;;;;;4200857;28;20051;-83
2023/02/09 05:53:17;;;;;;;43.35;41.45;;;-0.80;99.90;;;;;;4211633;28;20050;-83
2023/02/09 05:55:36;;;;;;;42.88;40.92;;;-0.80;99.90;;;;;;4209479;28;20239;-83
2023/02/09 05:57:56;;;;;;;42.20;40.40;;;-0.80;99.90;;;;;;4212798;28;20054;-83
2023/02/09 06:00:16;;;;;;;43.83;42.17;;;-0.90;99.90;;;;;;4211467;28;20259;-83
2023/02/09 06:02:36;;;;;;;43.45;41.65;;;-0.80;99.90;;;;;;4197379;28;20128;-83
2023/02/09 06:04:56;;;;;;;39.20;37.67;;;-0.80;99.90;;;;;;4207356;28;20122;-83
2023/02/09 06:07:16;;;;;;;42.67;40.78;;;-0.80;99.90;;;;;;4208954;28;20251;-83
2023/02/09 06:09:35;;;;;;;40.08;38.47;;;-0.80;99.90;;;;;;4209013;28;20039;-83
2023/02/09 06:11:55;;;;;;;42.70;40.90;;;-0.80;99.90;;;;;;4199493;28;20100;-83
2023/02/09 06:14:15;;;;;;;43.90;42.00;;;-0.80;99.90;;;;;;4197386;28;20104;-83
2023/02/09 06:16:35;;;;;;;45.00;43.25;;;-0.80;99.90;;;;;;4216242;28;20048;-83
2023/02/09 06:18:55;;;;;;;43.53;41.72;;;-0.90;99.90;;;;;;4217573;28;20048;-83
2023/02/09 06:21:15;;;;;;;43.08;41.33;;;-0.90;99.90;;;;;;4215165;28;20164;-83
2023/02/09 06:23:35;;;;;;;44.78;42.58;;;-0.90;99.90;;;;;;4214607;28;20330;-83
2023/02/09 06:25:56;;;;;;;42.53;40.55;;;-0.90;99.90;;;;;;4204816;28;20071;-83
2023/02/09 06:28:16;;;;;;;38.70;36.80;;;-0.90;99.90;;;;;;4204639;28;20132;-83
2023/02/09 06:30:36;;;;;;;35.45;33.95;;;-0.90;99.90;;;;;;4217656;28;20070;-83
2023/02/09 06:32:56;;;;;;;41.30;39.30;;;-0.90;99.90;;;;;;4210594;28;20440;-83
2023/02/09 06:35:16;;;;;;;42.33;40.42;;;-0.90;99.90;;;;;;4214005;28;20093;-83
2023/02/09 06:37:36;;;;;;;45.03;42.97;;;-0.80;99.90;;;;;;4212862;28;20078;-83
2023/02/09 06:39:56;;;;;;;39.88;38.25;;;-0.80;99.90;;;;;;4213523;28;20117;-83
2023/02/09 06:42:16;;;;;;;46.50;44.40;;;-0.80;99.90;;;;;;4206726;28;20362;-83
2023/02/09 06:44:35;;;;;;;46.33;44.33;;;-0.80;99.90;;;;;;4198583;28;20054;-83
2023/02/09 06:46:56;;;;;;;41.70;39.90;;;-0.80;99.90;;;;;;4213766;28;20055;-85
2023/02/09 06:49:17;;;;;;;41.50;39.90;;;-0.80;99.90;;;;;;4205369;28;20082;-90
2023/02/09 06:51:37;;;;;;;46.20;43.70;;;-0.70;99.90;;;;;;4195170;28;20151;-89
2023/02/09 06:53:57;;;;;;;47.22;45.25;;;-0.70;99.90;;;;;;4215569;28;20067;-90
2023/02/09 06:56:18;;;;;;;42.33;40.63;;;-0.60;99.90;;;;;;4213505;28;20156;-89
2023/02/09 06:58:39;;;;;;;43.83;42.13;;;-0.60;99.90;;;;;;4198707;28;20087;-90
2023/02/09 07:01:08;;;;;;;42.50;40.78;;;-0.60;99.90;;;;;;4210873;28;20120;-90
2023/02/09 07:03:28;;;;;;;43.97;42.00;;;-0.50;99.90;;;;;;4211098;28;20039;-90
2023/02/09 07:05:47;;;;;;;46.15;44.05;;;-0.50;99.90;;;;;;4200912;28;20047;-89
2023/02/09 07:08:08;;;;;;;41.67;40.13;;;-0.50;99.90;;;;;;4214442;28;20043;-89
2023/02/09 07:10:27;;;;;;;42.15;40.50;;;-0.50;99.90;;;;;;4199291;28;20304;-89
2023/02/09 07:12:47;;;;;;;44.78;43.05;;;-0.40;99.90;;;;;;4209392;28;20043;-89
2023/02/09 07:15:07;;;;;;;44.45;42.72;;;-0.40;99.90;;;;;;4202562;28;20040;-90
2023/02/09 07:17:28;;;;;;;43.75;41.85;;;-0.40;99.90;;;;;;4206074;28;20075;-89
2023/02/09 07:19:48;;;;;;;40.88;39.20;;;-0.40;99.90;;;;;;4197907;28;20383;-90
2023/02/09 07:22:09;;;;;;;42.22;40.15;;;-0.40;99.90;;;;;;4210702;28;20056;-89
2023/02/09 07:24:29;;;;;;;40.95;39.33;;;-0.30;99.90;;;;;;4204554;28;20078;-89
2023/02/09 07:26:49;;;;;;;47.60;45.05;;;-0.30;99.90;;;;;;4212499;28;20047;-89
2023/02/09 07:29:09;;;;;;;49.17;46.53;;;-0.30;99.90;;;;;;4214527;28;20075;-90
2023/02/09 07:31:32;;;;;;;45.15;43.05;;;-0.20;99.90;;;;;;4208308;28;20087;-90
2023/02/09 07:33:54;;;;;;;44.20;42.28;;;-0.30;99.90;;;;;;4198760;28;20052;-89
2023/02/09 07:36:15;;;;;;;40.20;38.53;;;-0.20;99.90;;;;;;4213870;28;20245;-90
2023/02/09 07:38:36;;;;;;;42.70;41.17;;;-0.30;99.90;;;;;;4204969;28;20108;-90
2023/02/09 07:40:58;;;;;;;42.75;41.15;;;-0.20;99.90;;;;;;4215425;28;20086;-89
2023/02/09 07:43:19;;;;;;;37.72;36.17;;;-0.10;99.90;;;;;;4210933;28;20067;-89
2023/02/09 07:45:40;;;;;;;38.92;37.50;;;0.00;99.90;;;;;;4210757;28;20055;-90
2023/02/09 07:48:00;;;;;;;36.50;35.25;;;-0.10;99.90;;;;;;4211284;28;20062;-89
2023/02/09 07:50:20;;;;;;;37.05;35.60;;;0.00;99.90;;;;;;4213654;28;20098;-90
2023/02/09 07:52:40;;;;;;;43.30;41.60;;;0.00;99.90;;;;;;4213577;28;20055;-90
2023/02/09 07:55:00;;;;;;;38.28;36.95;;;0.00;99.90;;;;;;4211914;28;20077;-90
2023/02/09 07:57:20;;;;;;;39.90;38.50;;;0.00;99.90;;;;;;4204343;28;20055;-90
2023/02/09 07:59:39;;;;;;;42.35;40.75;;;0.00;99.90;;;;;;4195615;28;20048;-90
2023/02/09 08:01:59;;;;;;;43.95;42.05;;;0.00;99.90;;;;;;4198367;28;20290;-90
2023/02/09 08:04:20;;;;;;;39.60;38.10;;;0.00;99.90;;;;;;4209672;28;20078;-89
2023/02/09 08:06:45;;;;;;;47.13;44.53;;;0.10;99.90;;;;;;4212864;28;20054;-91
2023/02/09 08:09:06;;;;;;;40.10;38.50;;;0.10;99.90;;;;;;4213325;28;20047;-91
2023/02/09 08:11:32;;;;;;;40.85;39.35;;;0.20;99.90;;;;;;4214239;28;20127;-90
2023/02/09 08:13:54;;;;;;;38.72;37.22;;;0.10;99.90;;;;;;4206571;28;20261;-90
2023/02/09 08:16:18;;;;;;;40.60;38.80;;;0.10;99.90;;;;;;4200906;28;20055;-90
2023/02/09 08:19:01;;;;;;;43.35;41.53;;;0.30;99.90;;;;;;4215836;28;20088;-90
2023/02/09 08:21:21;;;;;;;36.58;35.25;;;0.40;99.90;;;;;;4215921;28;20416;-90
2023/02/09 08:23:44;;;;;;;35.00;33.60;;;0.50;99.90;;;;;;4212102;28;20093;-90
2023/02/09 08:26:09;;;;;;;33.85;32.58;;;0.70;99.90;;;;;;4198413;28;20083;-91
2023/02/09 08:28:30;;;;;;;36.45;34.85;;;0.50;99.90;;;;;;4199658;28;20067;-90
2023/02/09 08:31:03;;;;;;;36.63;35.33;;;0.40;99.90;;;;;;4213125;28;20075;-91
2023/02/09 08:33:23;;;;;;;38.63;37.08;;;0.50;99.90;;;;;;4207889;28;20112;-91
2023/02/09 08:35:43;;;;;;;36.17;34.65;;;0.50;99.90;;;;;;4201761;28;20056;-90
2023/02/09 08:38:04;;;;;;;38.47;36.70;;;0.60;99.90;;;;;;4222507;28;20300;-90
2023/02/09 08:40:24;;;;;;;38.58;37.05;;;0.60;99.90;;;;;;4204388;28;20068;-91
2023/02/09 08:42:44;;;;;;;37.20;35.75;;;0.50;99.90;;;;;;4208758;28;20098;-90
2023/02/09 08:45:19;;;;;;;41.83;39.92;;;0.50;99.90;;;;;;4205057;28;20098;-90
2023/02/09 08:47:39;;;;;;;41.65;39.85;;;0.60;99.90;;;;;;4217269;28;20078;-90
2023/02/09 08:49:58;;;;;;;40.25;38.33;;;0.60;99.90;;;;;;4213003;28;20047;-89
2023/02/09 08:52:18;;;;;;;40.80;38.75;;;0.70;99.90;;;;;;4212975;28;20102;-89
2023/02/09 08:54:38;;;;;;;40.75;38.88;;;0.70;99.90;;;;;;4215665;28;20059;-90
2023/02/09 08:56:58;;;;;;;41.80;39.80;;;0.70;99.90;;;;;;4217421;28;20047;-90
2023/02/09 08:59:18;;;;;;;39.05;37.25;;;0.70;99.90;;;;;;4199602;28;20056;-90
2023/02/09 09:01:41;;;;;;;40.75;38.60;;;0.70;99.90;;;;;;4215923;28;20105;-90
2023/02/09 09:04:01;;;;;;;41.17;39.20;;;0.80;99.90;;;;;;4214679;28;20088;-90
2023/02/09 09:06:21;;;;;;;37.97;36.40;;;1.00;99.90;;;;;;4209085;28;20038;-90
2023/02/09 09:08:41;;;;;;;39.22;37.33;;;1.00;99.90;;;;;;4206608;28;20278;-90
2023/02/09 09:11:02;;;;;;;43.30;40.67;;;1.00;99.90;;;;;;4212739;28;20051;-90
2023/02/09 09:13:26;;;;;;;43.00;40.45;;;1.00;99.90;;;;;;4197965;28;20051;-90
2023/02/09 09:15:46;;;;;;;;;;;1.10;99.90;;;;;;4217741;28;20055;-90
2023/02/09 09:18:06;;;;;;;35.92;34.17;;;1.30;99.90;;;;;;4204949;28;19989;-90
2023/02/09 09:20:27;;;;;;;39.97;37.97;;;1.20;99.90;;;;;;4199663;28;20050;-89
2023/02/09 09:22:47;;;;;;;34.70;32.80;;;1.30;99.90;;;;;;4209128;28;20104;-90
2023/02/09 09:25:07;;;;;;;36.67;33.80;;;1.40;99.90;;;;;;4206448;28;20043;-91
2023/02/09 09:27:27;;;;;;;26.67;25.13;;;1.70;99.90;;;;;;4211289;28;20079;-90
2023/02/09 09:29:47;;;;;;;31.58;29.50;;;1.80;99.90;;;;;;4202339;28;20315;-90
2023/02/09 09:32:12;;;;;;;31.92;30.02;;;1.60;99.90;;;;;;4218552;28;20116;-90
2023/02/09 09:34:33;;;;;;;37.15;35.05;;;1.40;99.90;;;;;;4208440;28;20454;-90
2023/02/09 09:36:53;;;;;;;30.58;28.95;;;1.50;99.90;;;;;;4204335;28;20355;-89
2023/02/09 09:39:12;;;;;;;32.28;30.13;;;1.80;99.90;;;;;;4198375;28;20286;-88
2023/02/09 09:41:36;;;;;;;33.42;31.58;;;1.90;99.90;;;;;;4199966;28;20071;-88
2023/02/09 09:43:57;;;;;;;33.38;31.58;;;1.80;99.90;;;;;;4198041;28;20063;-88
2023/02/09 09:46:23;;;;;;;33.55;31.63;;;1.80;99.90;;;;;;4213002;28;20052;-88
2023/02/09 09:48:49;;;;;;;35.97;34.10;;;1.80;99.90;;;;;;4213244;28;20350;-89
2023/02/09 09:51:15;;;;;;;33.05;31.38;;;1.80;99.90;;;;;;4213570;28;20047;-88
2023/02/09 09:53:36;;;;;;;36.35;34.35;;;1.70;99.90;;;;;;4215132;28;20075;-88
2023/02/09 09:56:00;;;;;;;27.02;25.58;;;1.90;99.90;;;;;;4209930;28;20283;-89
2023/02/09 09:58:20;;;;;;;23.23;22.10;;;2.10;99.90;;;;;;4214840;28;20052;-88
2023/02/09 10:00:41;;;;;;;27.48;25.73;;;2.10;99.90;;;;;;4217214;28;20051;-88
2023/02/09 10:03:03;;;;;;;19.65;18.15;;;2.20;99.90;;;;;;4212718;28;20036;-89
2023/02/09 10:05:34;;;;;;;16.10;14.98;;;2.40;99.90;;;;;;4201592;28;20111;-89
2023/02/09 10:08:04;;;;;;;20.17;18.63;;;2.50;99.90;;;;;;4214082;28;20039;-89
2023/02/09 10:10:43;;;;;;;17.15;15.98;;;2.50;99.90;;;;;;4207373;28;20127;-89
2023/02/09 10:13:08;;;;;;;18.05;16.85;;;2.50;99.90;;;;;;4201197;28;20048;-89
2023/02/09 10:15:34;;;;;;;17.30;16.40;;;2.50;99.90;;;;;;4211554;28;20082;-89
2023/02/09 10:17:58;;;;;;;14.93;13.88;;;2.70;99.90;;;;;;4213789;28;20082;-90
2023/02/09 10:20:40;;;;;;;18.20;17.08;;;2.60;99.90;;;;;;4209437;28;20040;-89
2023/02/09 10:23:00;;;;;;;15.18;14.38;;;3.00;99.90;;;;;;4213848;28;20078;-89
2023/02/09 10:25:34;;;;;;;14.75;13.93;;;3.00;99.90;;;;;;4215506;28;20335;-90
2023/02/09 10:27:54;;;;;;;14.13;13.13;;;3.00;99.90;;;;;;4216161;28;20047;-89
2023/02/09 10:30:25;;;;;;;18.33;17.23;;;3.10;99.90;;;;;;4210245;28;20059;-89
2023/02/09 10:32:45;;;;;;;16.25;15.15;;;3.50;99.90;;;;;;4199235;28;20063;-90
2023/02/09 10:35:24;;;;;;;16.20;14.90;;;3.50;99.00;;;;;;4207613;28;20062;-89
2023/02/09 10:37:59;;;;;;;13.00;12.20;;;3.70;99.90;;;;;;4201144;28;20054;-89
2023/02/09 10:40:28;;;;;;;16.92;15.82;;;3.30;99.20;;;;;;4211743;28;20283;-89
2023/02/09 10:42:57;;;;;;;16.67;15.77;;;3.30;99.40;;;;;;4204434;28;20055;-89
2023/02/09 10:45:42;;;;;;;23.15;22.10;;;2.60;99.70;;;;;;4212563;28;20079;-89
2023/02/09 10:48:12;;;;;;;33.85;32.20;;;2.40;99.50;;;;;;4198471;28;20266;-89
2023/02/09 10:50:32;;;;;;;36.88;34.97;;;2.20;99.90;;;;;;4213859;28;20124;-89
2023/02/09 10:53:11;;;;;;;40.95;38.95;;;2.10;99.90;;;;;;4214024;28;20137;-89
2023/02/09 10:55:38;;;;;;;38.53;36.78;;;2.10;99.90;;;;;;4210324;28;20046;-90
2023/02/09 10:58:10;;;;;;;41.90;39.63;;;2.20;99.90;;;;;;4200474;28;20382;-89
2023/02/09 11:01:10;;;;;;;40.05;37.95;;;2.00;99.90;;;;;;4197535;28;20248;-89
2023/02/09 11:03:30;;;;;;;38.33;36.13;;;2.10;99.90;;;;;;4196025;28;20430;-89
2023/02/09 11:06:18;;;;;;;40.00;38.10;;;2.00;99.90;;;;;;4214856;28;20149;-89
2023/02/09 11:08:44;;;;;;;39.97;37.88;;;1.90;99.90;;;;;;4197619;28;20056;-89
2023/02/09 11:11:22;;;;;;;40.13;38.00;;;2.00;99.90;;;;;;4210127;28;20338;-89
2023/02/09 11:13:42;;;;;;;39.30;37.35;;;1.80;99.90;;;;;;4198712;28;20039;-89
2023/02/09 11:16:25;;;;;;;41.28;38.67;;;1.70;99.90;;;;;;4206406;28;20055;-89
2023/02/09 11:18:54;;;;;;;40.70;38.78;;;1.90;99.90;;;;;;4207567;28;20235;-89
2023/02/09 11:21:44;;;;;;;33.60;32.10;;;1.90;99.90;;;;;;4216292;28;20043;-90
2023/02/09 11:24:34;;;;;;;36.58;34.83;;;1.80;99.90;;;;;;4217939;28;20048;-90
2023/02/09 11:27:23;;;;;;;41.03;38.72;;;1.50;99.90;;;;;;4199885;28;20164;-89
2023/02/09 11:30:00;;;;;;;42.35;39.95;;;1.60;99.90;;;;;;4212430;28;20111;-89
2023/02/09 11:32:38;;;;;;;40.67;38.42;;;1.80;99.90;;;;;;4209207;28;20485;-89
2023/02/09 11:34:59;;;;;;;40.20;37.75;;;2.00;99.90;;;;;;4213253;28;20087;-89
2023/02/09 11:37:22;;;;;;;40.83;38.22;;;1.90;99.90;;;;;;4208346;28;20125;-89
2023/02/09 11:39:56;;;;;;;;;;;2.00;99.90;;;;;;4212828;28;20040;-89
2023/02/09 11:42:44;;;;;;;40.38;37.60;;;2.10;99.90;;;;;;4206145;28;20253;-88
2023/02/09 11:45:07;;;;;;;38.63;36.58;;;2.10;99.90;;;;;;4216598;28;20055;-89
2023/02/09 11:47:41;;;;;;;29.73;27.75;;;2.10;99.90;;;;;;4195642;28;20370;-88
2023/02/09 11:50:05;;;;;;;32.60;31.05;;;2.30;99.70;;;;;;4206500;28;20047;-89
2023/02/09 11:52:51;;;;;;;34.13;32.25;;;2.20;99.90;;;;;;4200075;28;20051;-89
2023/02/09 11:55:46;;;;;;;37.78;35.53;;;2.30;99.90;;;;;;4193331;28;20052;-89
2023/02/09 11:58:12;;;;;;;37.30;35.00;;;2.30;99.90;;;;;;4198589;28;20143;-89
2023/02/09 12:00:41;;;;;;;35.55;33.75;;;2.20;99.50;;;;;;4213035;28;20120;-89
2023/02/09 12:03:15;;;;;;;35.22;33.30;;;2.20;99.90;;;;;;4212360;28;20043;-89
2023/02/09 12:05:37;;;;;;;31.27;29.63;;;2.30;99.40;;;;;;4202647;28;20067;-89
2023/02/09 12:08:17;;;;;;;36.88;34.65;;;2.10;99.90;;;;;;4196994;28;20043;-89
2023/02/09 12:10:50;;;;;;;48.00;43.88;;;2.10;99.90;;;;;;4197336;28;20048;-89
2023/02/09 12:13:38;;;;;;;55.92;49.65;;;2.10;99.70;;;;;;4195513;28;20044;-89
2023/02/09 12:16:06;;;;;;;79.93;62.08;;;2.30;99.40;;;;;;4208078;28;20047;-89
2023/02/09 12:18:29;;;;;;;42.58;39.35;;;2.10;99.30;;;;;;4207637;28;20416;-89
2023/02/09 12:20:51;;;;;;;41.70;39.03;;;2.10;99.80;;;;;;4206366;28;20063;-90
2023/02/09 12:23:26;;;;;;;42.60;39.95;;;2.00;99.20;;;;;;4197769;28;20052;-90
2023/02/09 12:25:58;;;;;;;41.92;39.35;;;2.10;98.90;;;;;;4199021;28;20383;-89